Duvernay, Canada
Current Conditions -  °F | °C
As of 4:27 PM on Wednesday 17 Dec 2014 (Local Time) from CYUL Reporting Station
Drizzle Drizzle  
Wind Chill: -4°   Ceiling: 300
Heat Index:   Visibility: 1.2mi
Dew Point:   Wind: 7mph
Humidity: 100%   Direction: 20°NNE
Pressure: 29.77"   Gusts: NA
Location:  45.57°N, 73.85°W
Report Text: CYUL 172127Z 02006KT 1 1/4SM -DZ BR OVC003 00/M00 A2977 RMK SF8 SLP082
Loading
Personal Weather Stations






























Interactive Weather Map New forecast layout! Learn more

10-Day Weather Forecast

Advertisements
Track Severe Weather on mobile